Time;durP1;ratioP1;P1;durP2;ratioP2;P2;SDS_P1;SDS_P2;PMS_P1;PMS_P2;Temp;Humidity;BMP_temperature;BMP_pressure;BME280_temperature;BME280_humidity;BME280_pressure;Samples;Min_cycle;Max_cycle;Signal;HPM_P1;HPM_P2
2023/07/16 00:01:44;;;;;;;3.35;1.83;;;27.30;74.90;;;;;;4989849;28;20034;-59
2023/07/16 00:04:09;;;;;;;6.13;1.88;;;27.30;74.90;;;;;;5026176;28;20033;-59
2023/07/16 00:06:35;;;;;;;4.13;1.70;;;27.20;74.80;;;;;;5011099;28;20053;-59
2023/07/16 00:09:00;;;;;;;2.50;1.50;;;27.10;74.80;;;;;;5006044;28;20034;-59
2023/07/16 00:11:26;;;;;;;3.05;1.45;;;27.10;74.80;;;;;;5006086;28;20030;-58
2023/07/16 00:13:51;;;;;;;7.38;1.80;;;27.00;74.80;;;;;;4989756;28;20030;-58
2023/07/16 00:16:17;;;;;;;3.35;1.70;;;27.00;74.80;;;;;;4989715;28;20027;-59
2023/07/16 00:18:44;;;;;;;2.83;1.50;;;26.90;74.90;;;;;;5005771;28;20061;-58
2023/07/16 00:21:10;;;;;;;2.40;1.40;;;26.90;74.90;;;;;;5020914;28;20505;-59
2023/07/16 00:23:36;;;;;;;2.92;1.45;;;26.80;74.80;;;;;;5019478;28;20054;-59
2023/07/16 00:26:01;;;;;;;1.80;1.27;;;26.70;74.80;;;;;;5023508;28;20037;-58
2023/07/16 00:28:27;;;;;;;2.78;1.30;;;26.70;74.90;;;;;;5026450;28;20045;-58
2023/07/16 00:30:52;;;;;;;3.90;1.40;;;26.60;75.00;;;;;;5023241;28;20413;-58
2023/07/16 00:33:18;;;;;;;2.17;1.58;;;26.60;75.00;;;;;;5025765;28;20049;-58
2023/07/16 00:35:49;;;;;;;3.70;1.35;;;26.60;74.90;;;;;;5015006;28;20051;-58
2023/07/16 00:38:17;;;;;;;2.17;1.08;;;26.50;74.90;;;;;;5019994;28;20026;-58
2023/07/16 00:40:42;;;;;;;3.40;1.42;;;26.50;75.00;;;;;;5024999;28;20045;-59
2023/07/16 00:43:08;;;;;;;1.38;1.17;;;26.40;74.90;;;;;;5026397;28;20034;-58
2023/07/16 00:45:33;;;;;;;2.25;1.55;;;26.40;74.90;;;;;;5016199;28;20030;-58
2023/07/16 00:47:59;;;;;;;2.70;1.20;;;26.30;74.80;;;;;;5006901;28;20062;-58
2023/07/16 00:50:24;;;;;;;1.58;1.17;;;26.30;74.80;;;;;;5024650;28;20059;-58
2023/07/16 00:52:50;;;;;;;2.55;1.40;;;26.20;74.70;;;;;;5009539;28;20027;-58
2023/07/16 00:55:15;;;;;;;2.22;1.20;;;26.20;74.80;;;;;;5026549;28;20089;-58
2023/07/16 00:57:41;;;;;;;2.05;1.23;;;26.20;74.70;;;;;;5020507;28;20385;-58
2023/07/16 01:00:07;;;;;;;1.75;1.27;;;26.20;74.80;;;;;;5004773;28;20076;-58
2023/07/16 01:02:33;;;;;;;1.88;1.13;;;26.20;74.80;;;;;;5028684;28;20037;-58
2023/07/16 01:04:58;;;;;;;1.45;1.20;;;26.20;74.70;;;;;;5029040;28;20018;-58
2023/07/16 01:07:24;;;;;;;1.98;1.20;;;26.10;74.70;;;;;;5011641;28;20041;-58
2023/07/16 01:09:50;;;;;;;2.30;1.10;;;26.10;74.80;;;;;;5029187;28;20018;-58
2023/07/16 01:12:17;;;;;;;0.95;0.95;;;26.00;74.80;;;;;;5017075;28;20042;-58
2023/07/16 01:14:42;;;;;;;2.78;1.25;;;26.00;74.90;;;;;;5025550;28;20025;-58
2023/07/16 01:17:08;;;;;;;1.80;0.95;;;26.00;74.90;;;;;;5024970;28;20086;-58
2023/07/16 01:19:34;;;;;;;2.72;1.33;;;26.00;75.00;;;;;;5028786;28;20037;-58
2023/07/16 01:22:05;;;;;;;1.42;1.10;;;25.90;75.00;;;;;;5016272;28;20033;-58
2023/07/16 01:25:03;;;;;;;2.38;1.05;;;25.90;75.10;;;;;;5010167;28;20081;-58
2023/07/16 01:27:44;;;;;;;2.05;1.10;;;25.90;75.10;;;;;;5007647;28;20054;-58
2023/07/16 01:30:10;;;;;;;3.17;1.60;;;25.80;75.10;;;;;;5027851;28;20033;-58
2023/07/16 01:32:35;;;;;;;3.10;1.30;;;25.80;75.00;;;;;;5011635;28;20022;-58
2023/07/16 01:35:01;;;;;;;2.45;1.20;;;25.80;75.00;;;;;;5014499;28;20364;-58
2023/07/16 01:37:27;;;;;;;2.03;1.15;;;25.80;75.10;;;;;;5009406;28;20029;-58
2023/07/16 01:39:52;;;;;;;3.08;1.35;;;25.70;75.00;;;;;;5028512;28;20044;-58
2023/07/16 01:42:18;;;;;;;3.28;1.60;;;25.70;75.10;;;;;;5012275;28;20490;-58
2023/07/16 01:44:43;;;;;;;3.35;1.30;;;25.70;75.10;;;;;;5018631;28;20035;-58
2023/07/16 01:47:09;;;;;;;1.65;1.13;;;25.70;75.00;;;;;;5022492;28;20487;-58
2023/07/16 01:49:34;;;;;;;1.98;1.25;;;25.70;75.00;;;;;;5018474;28;20037;-58
2023/07/16 01:52:01;;;;;;;2.47;1.65;;;25.70;75.00;;;;;;5017932;28;20026;-57
2023/07/16 01:54:26;;;;;;;1.70;1.10;;;25.60;75.00;;;;;;5024135;28;20030;-58
2023/07/16 01:56:52;;;;;;;4.22;1.23;;;25.60;75.00;;;;;;5026596;28;20128;-58
2023/07/16 01:59:17;;;;;;;2.58;1.40;;;25.60;75.20;;;;;;5029480;28;20385;-58
2023/07/16 02:01:43;;;;;;;1.80;1.20;;;25.60;75.20;;;;;;5026931;28;20022;-58
2023/07/16 02:04:08;;;;;;;1.88;1.25;;;25.60;75.30;;;;;;5012225;28;20039;-58
2023/07/16 02:06:34;;;;;;;1.35;1.08;;;25.50;75.30;;;;;;5025086;28;20045;-59
2023/07/16 02:08:59;;;;;;;1.45;1.10;;;25.50;75.40;;;;;;5028789;28;20044;-59
2023/07/16 02:11:25;;;;;;;1.38;1.05;;;25.50;75.50;;;;;;5006892;28;20031;-59
2023/07/16 02:13:50;;;;;;;1.95;1.00;;;25.50;75.60;;;;;;5027840;28;20026;-59
2023/07/16 02:16:16;;;;;;;3.55;1.50;;;25.40;75.60;;;;;;5028424;28;20133;-59
2023/07/16 02:18:41;;;;;;;1.92;1.30;;;25.40;75.70;;;;;;5028920;28;20030;-59
2023/07/16 02:21:07;;;;;;;3.33;1.40;;;25.40;75.90;;;;;;5027964;28;20034;-59
2023/07/16 02:23:32;;;;;;;2.47;1.30;;;25.30;75.90;;;;;;5026929;28;20071;-59
2023/07/16 02:25:58;;;;;;;1.83;1.30;;;25.30;76.10;;;;;;5027000;28;20030;-59
2023/07/16 02:28:23;;;;;;;2.45;1.50;;;25.30;76.20;;;;;;5027366;28;20041;-59
2023/07/16 02:30:50;;;;;;;2.40;1.42;;;25.20;76.40;;;;;;5027755;28;20049;-59
2023/07/16 02:33:15;;;;;;;2.20;1.30;;;25.20;76.40;;;;;;5021099;28;20042;-59
2023/07/16 02:35:45;;;;;;;2.67;1.00;;;25.10;76.30;;;;;;5009991;28;20018;-59
2023/07/16 02:38:11;;;;;;;1.95;1.35;;;25.10;76.30;;;;;;5027401;28;20041;-59
2023/07/16 02:40:36;;;;;;;1.85;1.13;;;25.10;76.40;;;;;;5022515;28;20033;-59
2023/07/16 02:43:02;;;;;;;2.83;1.13;;;25.10;76.50;;;;;;5026090;28;20041;-59
2023/07/16 02:45:27;;;;;;;2.03;1.20;;;25.10;76.60;;;;;;5010875;28;20022;-58
2023/07/16 02:47:53;;;;;;;2.47;1.50;;;25.10;76.70;;;;;;5028053;28;20493;-59
2023/07/16 02:50:18;;;;;;;3.97;1.33;;;25.00;76.80;;;;;;5028380;28;20029;-59
2023/07/16 02:52:44;;;;;;;2.15;1.25;;;25.00;77.00;;;;;;5024564;28;20621;-59
2023/07/16 02:55:10;;;;;;;3.20;1.45;;;25.00;77.20;;;;;;5022052;28;20045;-58
2023/07/16 02:57:35;;;;;;;2.65;1.20;;;24.90;77.10;;;;;;5006951;28;20061;-59
2023/07/16 03:00:01;;;;;;;2.60;1.40;;;24.90;77.20;;;;;;5007327;28;20027;-59
2023/07/16 03:02:26;;;;;;;1.75;1.35;;;24.90;77.30;;;;;;5024288;28;20068;-59
2023/07/16 03:04:52;;;;;;;3.05;1.48;;;24.90;77.40;;;;;;5028081;28;20034;-59
2023/07/16 03:07:18;;;;;;;1.70;1.20;;;24.80;78.10;;;;;;5027401;28;20044;-58
2023/07/16 03:09:43;;;;;;;1.50;1.15;;;24.80;77.50;;;;;;5025360;28;20529;-59
2023/07/16 03:12:09;;;;;;;2.05;1.15;;;24.80;77.50;;;;;;5027361;28;20131;-59
2023/07/16 03:14:34;;;;;;;1.30;1.02;;;24.80;77.60;;;;;;5027211;28;20022;-59
2023/07/16 03:17:00;;;;;;;2.15;1.30;;;24.80;77.70;;;;;;5025884;28;20097;-59
2023/07/16 03:19:25;;;;;;;4.80;1.35;;;24.70;77.80;;;;;;5011638;28;20046;-59
2023/07/16 03:21:51;;;;;;;1.42;1.08;;;24.70;77.90;;;;;;5024769;28;20062;-59
2023/07/16 03:24:16;;;;;;;1.45;1.10;;;24.60;77.90;;;;;;5025561;28;20045;-60
2023/07/16 03:26:42;;;;;;;1.60;1.20;;;24.60;78.00;;;;;;5020116;28;20034;-60
2023/07/16 03:29:08;;;;;;;2.00;1.00;;;24.60;77.90;;;;;;5018568;28;20037;-59
2023/07/16 03:31:33;;;;;;;1.98;1.30;;;24.60;78.10;;;;;;5027103;28;20033;-59
2023/07/16 03:33:59;;;;;;;1.60;1.15;;;24.60;78.20;;;;;;5025921;28;20038;-59
2023/07/16 03:36:24;;;;;;;3.13;1.50;;;24.60;78.30;;;;;;5020615;28;20026;-59
2023/07/16 03:38:50;;;;;;;2.33;1.50;;;24.50;78.30;;;;;;5018105;28;20105;-58
2023/07/16 03:41:15;;;;;;;3.47;2.42;;;24.50;78.20;;;;;;5025505;28;20037;-59
2023/07/16 03:43:41;;;;;;;4.45;3.00;;;24.60;78.00;;;;;;5025644;28;20056;-58
2023/07/16 03:46:08;;;;;;;3.28;2.42;;;24.60;78.00;;;;;;5024673;28;20044;-59
2023/07/16 03:48:34;;;;;;;3.58;2.40;;;24.60;78.10;;;;;;5018820;28;20034;-59
2023/07/16 03:50:59;;;;;;;5.25;2.80;;;24.50;78.10;;;;;;5017109;28;20450;-59
2023/07/16 03:53:25;;;;;;;3.65;1.90;;;24.50;78.10;;;;;;5026165;28;20030;-58
2023/07/16 03:55:50;;;;;;;2.40;2.00;;;24.50;78.30;;;;;;5025004;28;20378;-59
2023/07/16 03:58:16;;;;;;;3.22;2.10;;;24.40;78.50;;;;;;5011868;28;20154;-59
2023/07/16 04:00:42;;;;;;;3.22;1.90;;;24.50;78.80;;;;;;5026867;28;20030;-59
2023/07/16 04:03:08;;;;;;;1.90;1.52;;;24.40;78.80;;;;;;5024490;28;20100;-58
2023/07/16 04:05:33;;;;;;;2.60;1.70;;;24.40;79.00;;;;;;5014756;28;20522;-58
2023/07/16 04:07:59;;;;;;;3.53;1.80;;;24.40;79.10;;;;;;5021299;28;20038;-59
2023/07/16 04:10:24;;;;;;;4.20;1.83;;;24.40;79.20;;;;;;5025062;28;20026;-59
2023/07/16 04:12:50;;;;;;;1.88;1.40;;;24.40;79.30;;;;;;5025692;28;20052;-58
2023/07/16 04:15:15;;;;;;;1.98;1.67;;;24.30;79.20;;;;;;5026975;28;20041;-58
2023/07/16 04:17:41;;;;;;;2.30;1.73;;;24.30;79.40;;;;;;5025992;28;20099;-59
2023/07/16 04:20:07;;;;;;;2.30;1.58;;;24.30;79.40;;;;;;5025065;28;20033;-58
2023/07/16 04:22:34;;;;;;;4.32;1.70;;;24.30;79.40;;;;;;5023935;28;20070;-58
2023/07/16 04:24:59;;;;;;;3.08;1.65;;;24.30;79.50;;;;;;5007673;28;20022;-58
2023/07/16 04:27:25;;;;;;;2.13;1.75;;;24.20;79.40;;;;;;5019006;28;20084;-58
2023/07/16 04:29:51;;;;;;;3.20;1.85;;;24.20;79.40;;;;;;5025548;28;20033;-58
2023/07/16 04:32:16;;;;;;;4.45;1.55;;;24.20;79.40;;;;;;5025988;28;20120;-58
2023/07/16 04:34:42;;;;;;;1.52;1.42;;;24.20;79.40;;;;;;5024043;28;20018;-59
2023/07/16 04:37:07;;;;;;;2.40;1.80;;;24.20;79.40;;;;;;5026073;28;20029;-58
2023/07/16 04:39:33;;;;;;;2.55;1.70;;;24.20;79.30;;;;;;5025339;28;20112;-58
2023/07/16 04:41:58;;;;;;;4.68;1.70;;;24.20;79.30;;;;;;5024788;28;20044;-57
2023/07/16 04:44:24;;;;;;;3.38;1.50;;;24.20;79.30;;;;;;5025239;28;20030;-58
2023/07/16 04:46:49;;;;;;;1.65;1.38;;;24.20;80.10;;;;;;5010490;28;20026;-58
2023/07/16 04:49:15;;;;;;;1.90;1.70;;;24.20;79.40;;;;;;5026479;28;20052;-58
2023/07/16 04:51:40;;;;;;;2.25;1.60;;;24.10;79.50;;;;;;5024542;28;20026;-57
2023/07/16 04:54:06;;;;;;;2.85;1.70;;;24.10;79.50;;;;;;5024070;28;20057;-58
2023/07/16 04:56:31;;;;;;;2.65;1.80;;;24.20;79.60;;;;;;5025084;28;20033;-58
2023/07/16 04:58:57;;;;;;;2.22;1.50;;;24.10;79.70;;;;;;5025777;28;20537;-58
2023/07/16 05:01:22;;;;;;;2.45;1.52;;;24.10;79.70;;;;;;5015938;28;20065;-58
2023/07/16 05:03:48;;;;;;;2.25;1.50;;;24.10;79.80;;;;;;5018642;28;20398;-58
2023/07/16 05:06:14;;;;;;;1.70;1.60;;;24.10;79.80;;;;;;5024825;28;20077;-59
2023/07/16 05:08:39;;;;;;;2.45;1.60;;;24.10;79.90;;;;;;5026424;28;20034;-58
2023/07/16 05:11:05;;;;;;;1.50;1.40;;;24.10;79.90;;;;;;5024154;28;20054;-58
2023/07/16 05:13:30;;;;;;;3.55;1.63;;;24.10;80.00;;;;;;5025266;28;20041;-58
2023/07/16 05:15:56;;;;;;;2.38;1.42;;;24.10;80.10;;;;;;5008101;28;20394;-58
2023/07/16 05:18:22;;;;;;;2.63;1.40;;;24.10;80.10;;;;;;5007892;28;20057;-58
2023/07/16 05:20:48;;;;;;;2.53;1.50;;;24.00;79.90;;;;;;5026429;28;20034;-58
2023/07/16 05:23:14;;;;;;;1.75;1.48;;;24.10;80.00;;;;;;5005505;28;20029;-58
2023/07/16 05:25:45;;;;;;;3.67;1.65;;;24.00;79.90;;;;;;5021594;28;20033;-58
2023/07/16 05:28:10;;;;;;;1.55;1.10;;;24.10;79.80;;;;;;5021843;28;20037;-58
2023/07/16 05:30:36;;;;;;;2.33;1.52;;;24.00;79.80;;;;;;5012706;28;20324;-58
2023/07/16 05:33:01;;;;;;;3.00;1.83;;;24.00;79.80;;;;;;5013135;28;20435;-58
2023/07/16 05:35:27;;;;;;;4.53;1.50;;;24.00;80.10;;;;;;5021081;28;20053;-58
2023/07/16 05:37:52;;;;;;;1.70;1.48;;;24.00;80.40;;;;;;5022625;28;20084;-58
2023/07/16 05:40:18;;;;;;;2.13;1.70;;;24.00;80.70;;;;;;5024809;28;20053;-58
2023/07/16 05:42:43;;;;;;;5.18;1.80;;;24.00;80.90;;;;;;5026876;28;20044;-58
2023/07/16 05:45:09;;;;;;;1.15;0.90;;;24.00;80.70;;;;;;5028376;28;20026;-58
2023/07/16 05:47:35;;;;;;;2.75;1.45;;;24.00;80.70;;;;;;5028255;28;20037;-58
2023/07/16 05:50:01;;;;;;;2.92;1.63;;;23.90;80.90;;;;;;5023545;28;20022;-58
2023/07/16 05:52:26;;;;;;;2.15;1.70;;;24.00;81.10;;;;;;5009126;28;20065;-58
2023/07/16 05:54:53;;;;;;;1.90;1.40;;;24.00;81.20;;;;;;5008458;28;20049;-58
2023/07/16 05:57:18;;;;;;;2.33;1.52;;;23.90;81.20;;;;;;4999582;28;20030;-58
2023/07/16 05:59:44;;;;;;;4.30;1.58;;;23.90;81.40;;;;;;5020082;28;20037;-58
2023/07/16 06:02:09;;;;;;;3.88;1.52;;;23.90;81.50;;;;;;5028557;28;20080;-58
2023/07/16 06:04:35;;;;;;;1.33;1.23;;;23.90;81.50;;;;;;5028979;28;20034;-58
2023/07/16 06:07:01;;;;;;;1.90;1.40;;;23.90;81.50;;;;;;5027449;28;20046;-58
2023/07/16 06:09:27;;;;;;;1.52;1.38;;;23.90;81.50;;;;;;5019393;28;20042;-58
2023/07/16 06:11:52;;;;;;;1.83;1.38;;;23.90;81.50;;;;;;5017624;28;20034;-58
2023/07/16 06:14:18;;;;;;;2.33;1.30;;;23.90;81.30;;;;;;5027744;28;20030;-58
2023/07/16 06:16:44;;;;;;;5.10;1.70;;;23.90;81.80;;;;;;5018398;28;20027;-58
2023/07/16 06:19:09;;;;;;;1.30;1.17;;;23.80;81.20;;;;;;5025271;28;20057;-58
2023/07/16 06:21:35;;;;;;;4.15;1.60;;;23.90;82.00;;;;;;5017928;28;20030;-58
2023/07/16 06:24:01;;;;;;;1.92;1.20;;;23.90;81.50;;;;;;5020003;28;20085;-57
2023/07/16 06:26:26;;;;;;;1.73;1.58;;;23.80;81.50;;;;;;5022864;28;20475;-58
2023/07/16 06:28:52;;;;;;;2.70;1.48;;;23.80;81.50;;;;;;5018975;28;20033;-58
2023/07/16 06:31:17;;;;;;;2.45;1.20;;;23.90;81.50;;;;;;5027990;28;20044;-58
2023/07/16 06:33:43;;;;;;;3.13;1.52;;;23.90;81.20;;;;;;5010657;28;20034;-58
2023/07/16 06:36:08;;;;;;;2.45;1.23;;;23.80;81.00;;;;;;5012010;28;20090;-58
2023/07/16 06:38:34;;;;;;;3.20;1.67;;;23.90;80.90;;;;;;5029042;28;20017;-58
2023/07/16 06:41:00;;;;;;;1.92;1.40;;;23.90;80.80;;;;;;5028835;28;20034;-58
2023/07/16 06:43:25;;;;;;;2.25;1.30;;;23.90;80.80;;;;;;5027350;28;20033;-58
2023/07/16 06:45:51;;;;;;;1.65;1.30;;;23.80;80.60;;;;;;5027331;28;20022;-58
2023/07/16 06:48:17;;;;;;;2.00;1.17;;;23.90;80.80;;;;;;5027717;28;20032;-57
2023/07/16 06:50:42;;;;;;;3.88;1.15;;;23.90;80.90;;;;;;5027294;28;20073;-58
2023/07/16 06:53:08;;;;;;;2.28;1.30;;;23.90;80.90;;;;;;5026193;28;20101;-58
2023/07/16 06:55:33;;;;;;;2.20;1.20;;;23.90;80.70;;;;;;5026636;28;20034;-58
2023/07/16 06:58:00;;;;;;;3.33;1.10;;;23.90;81.00;;;;;;5026554;28;20022;-58
2023/07/16 07:00:26;;;;;;;1.58;1.20;;;23.90;80.80;;;;;;5026315;28;20053;-57
2023/07/16 07:02:51;;;;;;;1.42;0.90;;;23.90;80.40;;;;;;5026733;28;20462;-58
2023/07/16 07:05:17;;;;;;;2.17;1.33;;;23.90;80.10;;;;;;5018108;28;20046;-58
2023/07/16 07:07:44;;;;;;;1.20;1.00;;;23.90;80.00;;;;;;5015124;28;20086;-58
2023/07/16 07:10:11;;;;;;;2.63;1.20;;;23.80;80.00;;;;;;5012835;28;20026;-58
2023/07/16 07:12:37;;;;;;;1.92;1.33;;;23.90;80.00;;;;;;5025676;28;20080;-57
2023/07/16 07:15:08;;;;;;;1.98;1.23;;;23.80;79.80;;;;;;5026824;28;20029;-57
2023/07/16 07:17:33;;;;;;;1.88;1.25;;;23.80;79.60;;;;;;5011883;28;20498;-57
2023/07/16 07:19:59;;;;;;;3.40;1.25;;;23.80;79.50;;;;;;5024843;28;20031;-58
2023/07/16 07:22:25;;;;;;;2.00;1.17;;;23.90;80.10;;;;;;5006218;28;20030;-57
2023/07/16 07:24:51;;;;;;;2.10;1.17;;;23.90;79.10;;;;;;5028638;28;20053;-58
2023/07/16 07:27:16;;;;;;;1.45;1.23;;;23.90;79.10;;;;;;5011490;28;20034;-57
2023/07/16 07:29:42;;;;;;;1.80;1.10;;;23.90;78.90;;;;;;5009215;28;20169;-58
2023/07/16 07:32:07;;;;;;;3.30;1.50;;;23.90;78.90;;;;;;5025323;28;20033;-58
2023/07/16 07:34:33;;;;;;;3.05;1.40;;;23.90;78.90;;;;;;5008717;28;20045;-57
2023/07/16 07:36:59;;;;;;;1.42;1.02;;;23.90;78.80;;;;;;5016544;28;20096;-58
2023/07/16 07:39:24;;;;;;;2.33;1.50;;;23.90;78.80;;;;;;5020058;28;20026;-57
2023/07/16 07:41:50;;;;;;;2.30;1.38;;;23.90;78.60;;;;;;5016876;28;20049;-57
2023/07/16 07:44:15;;;;;;;1.90;1.17;;;23.90;78.60;;;;;;5028580;28;20061;-57
2023/07/16 07:46:41;;;;;;;1.98;1.20;;;23.90;78.60;;;;;;5026340;28;20088;-57
2023/07/16 07:49:06;;;;;;;2.30;1.17;;;23.90;78.50;;;;;;5026222;28;20033;-57
2023/07/16 07:51:32;;;;;;;1.33;1.10;;;24.00;78.50;;;;;;5025657;28;20030;-60
2023/07/16 07:53:57;;;;;;;1.80;1.13;;;24.00;78.40;;;;;;5025798;28;20434;-57
2023/07/16 07:56:23;;;;;;;1.63;1.20;;;24.00;78.20;;;;;;5026042;28;20030;-57
2023/07/16 07:58:49;;;;;;;2.30;1.48;;;24.00;77.80;;;;;;5026912;28;20026;-57
2023/07/16 08:01:14;;;;;;;1.65;1.10;;;23.90;78.20;;;;;;5018474;28;20035;-54
2023/07/16 08:03:40;;;;;;;1.05;0.95;;;23.80;77.60;;;;;;5024105;28;20466;-53
2023/07/16 08:06:05;;;;;;;3.25;1.58;;;23.80;77.60;;;;;;5016082;28;20034;-53
2023/07/16 08:08:31;;;;;;;3.25;1.35;;;23.80;77.70;;;;;;5020363;28;20032;-54
2023/07/16 08:10:56;;;;;;;2.78;1.40;;;23.70;77.70;;;;;;5025197;28;20199;-54
2023/07/16 08:13:22;;;;;;;4.97;1.92;;;23.70;77.70;;;;;;5025642;28;20049;-53
2023/07/16 08:15:47;;;;;;;3.70;1.75;;;23.70;77.70;;;;;;5026537;28;20026;-53
2023/07/16 08:18:13;;;;;;;5.63;1.70;;;23.60;77.70;;;;;;5026632;28;20088;-53
2023/07/16 08:20:40;;;;;;;7.28;2.00;;;23.60;77.80;;;;;;5025624;28;20056;-53
2023/07/16 08:23:06;;;;;;;9.57;2.05;;;23.50;78.00;;;;;;5026182;28;20042;-53
2023/07/16 08:25:31;;;;;;;12.70;2.85;;;23.40;78.30;;;;;;5025346;28;20088;-54
2023/07/16 08:27:57;;;;;;;12.80;2.60;;;23.40;78.60;;;;;;5026239;28;20085;-54
2023/07/16 08:30:22;;;;;;;13.63;2.63;;;23.40;78.60;;;;;;5025082;28;20041;-53
2023/07/16 08:32:48;;;;;;;25.55;3.17;;;23.40;78.60;;;;;;5024154;28;20033;-54
2023/07/16 08:35:16;;;;;;;10.57;2.58;;;23.40;78.60;;;;;;5016227;28;20077;-54
2023/07/16 08:37:45;;;;;;;14.23;2.70;;;23.40;78.50;;;;;;5024433;28;20018;-54
2023/07/16 08:40:11;;;;;;;25.55;3.90;;;23.50;78.30;;;;;;5024941;28;20030;-54
2023/07/16 08:42:38;;;;;;;34.67;4.97;;;23.50;78.30;;;;;;5026081;28;20038;-53
2023/07/16 08:45:06;;;;;;;30.10;4.65;;;23.50;78.50;;;;;;5019702;28;20164;-54
2023/07/16 08:47:31;;;;;;;17.63;3.63;;;23.50;78.40;;;;;;5025134;28;20026;-53
2023/07/16 08:49:57;;;;;;;22.20;3.35;;;23.50;78.30;;;;;;5016404;28;20522;-53
2023/07/16 08:52:23;;;;;;;27.20;5.57;;;23.40;78.30;;;;;;5023947;28;20385;-54
2023/07/16 08:54:48;;;;;;;33.40;5.07;;;23.40;78.50;;;;;;5017029;28;20494;-54
2023/07/16 08:57:14;;;;;;;57.15;7.78;;;23.40;78.80;;;;;;5007537;28;20022;-54
2023/07/16 08:59:40;;;;;;;30.58;5.65;;;23.40;79.00;;;;;;5024873;28;20030;-54
2023/07/16 09:02:06;;;;;;;34.92;5.43;;;23.40;78.90;;;;;;5019986;28;20071;-53
2023/07/16 09:04:32;;;;;;;26.10;5.38;;;23.40;79.10;;;;;;4991808;28;20045;-54
2023/07/16 09:06:58;;;;;;;23.77;4.22;;;23.40;79.40;;;;;;5019350;28;20030;-54
2023/07/16 09:09:23;;;;;;;35.08;5.50;;;23.40;79.80;;;;;;5007102;28;20034;-54
2023/07/16 09:11:49;;;;;;;31.30;5.03;;;23.40;80.00;;;;;;5023833;28;20080;-54
2023/07/16 09:14:21;;;;;;;49.17;6.78;;;23.30;80.30;;;;;;5006511;28;20046;-53
2023/07/16 09:16:50;;;;;;;48.95;6.35;;;23.40;80.30;;;;;;5008169;28;20040;-54
2023/07/16 09:19:18;;;;;;;36.83;5.40;;;23.30;80.00;;;;;;5020879;28;20022;-54
2023/07/16 09:21:46;;;;;;;63.72;7.95;;;23.30;79.60;;;;;;5021948;28;20072;-54
2023/07/16 09:24:11;;;;;;;53.97;7.47;;;23.40;79.60;;;;;;5011685;28;20033;-54
2023/07/16 09:26:38;;;;;;;108.72;12.80;;;23.40;79.60;;;;;;5029496;28;20030;-54
2023/07/16 09:29:07;;;;;;;75.25;10.70;;;23.40;79.80;;;;;;5008051;28;20065;-54
2023/07/16 09:31:33;;;;;;;75.85;9.52;;;23.40;80.00;;;;;;5028360;28;20034;-54
2023/07/16 09:33:58;;;;;;;52.05;8.35;;;23.40;79.70;;;;;;5027709;28;20044;-54
2023/07/16 09:36:27;;;;;;;57.05;7.72;;;23.40;79.60;;;;;;5027305;28;20066;-54
2023/07/16 09:38:56;;;;;;;76.43;10.35;;;23.40;79.10;;;;;;5009881;28;20015;-54
2023/07/16 09:41:21;;;;;;;54.50;8.73;;;23.50;79.40;;;;;;5024901;28;20034;-54
2023/07/16 09:43:47;;;;;;;44.88;6.93;;;23.50;79.10;;;;;;5012359;28;20048;-54
2023/07/16 09:46:12;;;;;;;32.28;5.30;;;23.50;78.90;;;;;;5009038;28;20096;-54
2023/07/16 09:48:38;;;;;;;42.65;6.28;;;23.50;78.70;;;;;;5026566;28;20032;-54
2023/07/16 09:51:04;;;;;;;82.30;9.43;;;23.50;78.60;;;;;;5010789;28;20026;-54
2023/07/16 09:53:31;;;;;;;53.40;7.15;;;23.50;78.70;;;;;;5015981;28;20027;-54
2023/07/16 09:55:56;;;;;;;58.53;7.43;;;23.50;78.60;;;;;;5009843;28;20437;-54
2023/07/16 09:58:22;;;;;;;109.43;14.00;;;23.50;78.70;;;;;;5010673;28;20097;-54
2023/07/16 10:00:48;;;;;;;101.47;11.90;;;23.50;78.80;;;;;;5027625;28;20042;-53
2023/07/16 10:03:15;;;;;;;90.40;11.70;;;23.60;78.80;;;;;;5007213;28;20037;-53
2023/07/16 10:05:40;;;;;;;46.40;7.38;;;23.60;78.60;;;;;;5010267;28;20049;-54
2023/07/16 10:08:15;;;;;;;49.38;7.32;;;23.60;78.40;;;;;;5021617;28;20038;-53
2023/07/16 10:10:44;;;;;;;47.10;6.63;;;23.60;78.30;;;;;;5007731;28;20041;-53
2023/07/16 10:13:12;;;;;;;35.65;5.90;;;23.60;78.20;;;;;;5010043;28;20288;-53
2023/07/16 10:15:38;;;;;;;57.88;8.40;;;23.60;78.40;;;;;;5028504;28;20042;-53
2023/07/16 10:18:03;;;;;;;42.13;6.00;;;23.60;78.20;;;;;;5013301;28;20033;-53
2023/07/16 10:20:42;;;;;;;43.67;6.55;;;23.60;78.30;;;;;;5022443;28;20034;-54
2023/07/16 10:23:14;;;;;;;38.10;6.13;;;23.60;78.40;;;;;;5026610;28;20076;-53
2023/07/16 10:25:40;;;;;;;27.45;5.18;;;23.70;78.40;;;;;;5027850;28;20105;-54
2023/07/16 10:28:06;;;;;;;44.50;6.40;;;23.70;78.20;;;;;;5024352;28;20065;-54
2023/07/16 10:30:32;;;;;;;38.20;6.38;;;23.70;78.20;;;;;;5021320;28;20034;-54
2023/07/16 10:33:00;;;;;;;37.63;5.78;;;23.70;77.90;;;;;;5010575;28;20026;-53
2023/07/16 10:35:25;;;;;;;27.65;6.00;;;23.70;77.80;;;;;;5028239;28;20026;-53
2023/07/16 10:37:51;;;;;;;42.80;6.25;;;23.70;77.70;;;;;;5026153;28;20073;-53
2023/07/16 10:40:16;;;;;;;43.58;6.85;;;23.70;77.70;;;;;;5027611;28;20121;-53
2023/07/16 10:42:43;;;;;;;35.25;5.75;;;23.80;77.70;;;;;;5026620;28;20030;-53
2023/07/16 10:45:09;;;;;;;34.55;5.47;;;23.80;78.40;;;;;;5010689;28;20026;-53
2023/07/16 10:47:39;;;;;;;46.03;6.28;;;23.80;77.60;;;;;;5026674;28;20038;-53
2023/07/16 10:50:09;;;;;;;41.88;6.20;;;23.80;77.70;;;;;;5028095;28;20040;-53
2023/07/16 10:52:35;;;;;;;45.70;6.65;;;23.70;77.80;;;;;;5010218;28;20060;-53
2023/07/16 10:55:01;;;;;;;47.03;5.93;;;23.80;77.90;;;;;;5010135;28;20180;-53
2023/07/16 10:57:27;;;;;;;51.42;6.75;;;23.80;77.70;;;;;;5027554;28;20035;-53
2023/07/16 10:59:55;;;;;;;38.08;5.68;;;23.80;77.50;;;;;;5007195;28;20058;-53
2023/07/16 11:02:22;;;;;;;33.28;6.05;;;23.90;77.40;;;;;;5013917;28;20101;-53
2023/07/16 11:04:48;;;;;;;41.45;5.68;;;23.90;77.40;;;;;;5039389;28;20038;-53
2023/07/16 11:07:14;;;;;;;40.28;6.22;;;23.90;77.40;;;;;;5020032;28;20056;-53
2023/07/16 11:09:53;;;;;;;36.90;5.93;;;23.90;77.30;;;;;;5020563;28;20402;-53
2023/07/16 11:12:20;;;;;;;39.38;6.18;;;23.90;77.30;;;;;;5024710;28;20108;-53
2023/07/16 11:14:56;;;;;;;25.85;4.85;;;24.00;77.40;;;;;;5011912;28;20045;-53
2023/07/16 11:17:23;;;;;;;23.48;4.57;;;24.00;77.20;;;;;;5006699;28;20031;-53
2023/07/16 11:19:50;;;;;;;37.42;5.22;;;24.00;77.20;;;;;;5024447;28;20394;-53
2023/07/16 11:22:15;;;;;;;51.45;7.60;;;24.00;77.30;;;;;;4990100;28;20391;-53
2023/07/16 11:24:42;;;;;;;34.90;6.18;;;24.10;77.60;;;;;;5024024;28;20157;-53
2023/07/16 11:27:15;;;;;;;26.05;5.25;;;24.10;77.50;;;;;;5032981;28;20045;-53
2023/07/16 11:29:44;;;;;;;22.55;4.15;;;24.10;77.40;;;;;;5021321;28;20044;-53
2023/07/16 11:32:10;;;;;;;25.73;4.63;;;24.10;77.40;;;;;;5009607;28;20038;-53
2023/07/16 11:34:35;;;;;;;33.63;6.13;;;24.10;77.30;;;;;;5024916;28;20026;-53
2023/07/16 11:37:11;;;;;;;35.22;5.70;;;24.20;77.80;;;;;;5022968;28;20034;-52
2023/07/16 11:39:36;;;;;;;42.55;5.68;;;24.20;77.80;;;;;;5022377;28;20037;-53
2023/07/16 11:42:03;;;;;;;66.75;10.10;;;24.30;77.70;;;;;;5023925;28;20125;-53
2023/07/16 11:44:35;;;;;;;26.45;5.20;;;24.30;77.50;;;;;;5020038;28;20054;-53
2023/07/16 11:47:01;;;;;;;37.58;5.90;;;24.40;77.60;;;;;;5018546;28;20030;-53
2023/07/16 11:49:27;;;;;;;84.13;9.90;;;24.50;77.70;;;;;;5017493;28;20076;-53
2023/07/16 11:51:52;;;;;;;104.45;11.93;;;24.60;77.70;;;;;;5004361;28;20026;-53
2023/07/16 11:54:18;;;;;;;81.72;9.15;;;24.60;77.50;;;;;;5024478;28;20052;-53
2023/07/16 11:56:44;;;;;;;53.58;8.60;;;24.70;77.10;;;;;;5022642;28;20046;-53
2023/07/16 11:59:09;;;;;;;60.67;8.93;;;24.80;76.70;;;;;;5026308;28;20121;-53
2023/07/16 12:01:35;;;;;;;63.08;7.78;;;24.90;76.50;;;;;;5023008;28;20093;-52
2023/07/16 12:04:00;;;;;;;51.88;7.47;;;24.90;76.60;;;;;;5024875;28;20021;-53
2023/07/16 12:06:26;;;;;;;70.78;10.65;;;24.90;76.50;;;;;;5008306;28;20097;-53
2023/07/16 12:08:51;;;;;;;59.08;8.30;;;24.90;76.50;;;;;;5007113;28;20072;-53
2023/07/16 12:11:17;;;;;;;39.80;6.32;;;24.90;76.40;;;;;;5021237;28;20053;-53
2023/07/16 12:13:42;;;;;;;55.63;7.78;;;24.90;75.90;;;;;;5023902;28;20359;-53
2023/07/16 12:16:08;;;;;;;51.00;6.80;;;25.00;76.00;;;;;;5025234;28;20383;-53
2023/07/16 12:18:33;;;;;;;42.83;6.30;;;25.00;76.00;;;;;;5023416;28;20022;-53
2023/07/16 12:20:59;;;;;;;51.42;7.07;;;24.90;75.90;;;;;;5020733;28;20034;-53
2023/07/16 12:23:24;;;;;;;45.90;6.50;;;24.90;76.00;;;;;;5024005;28;20049;-53
2023/07/16 12:25:50;;;;;;;27.05;5.20;;;24.90;76.00;;;;;;5024910;28;20093;-52
2023/07/16 12:28:15;;;;;;;41.90;6.68;;;24.90;76.00;;;;;;5006138;28;20034;-57
2023/07/16 12:30:41;;;;;;;50.42;7.50;;;24.80;75.90;;;;;;5012774;28;20041;-57
2023/07/16 12:33:07;;;;;;;70.10;9.32;;;24.90;76.20;;;;;;5025697;28;20029;-57
2023/07/16 12:35:32;;;;;;;73.75;8.38;;;24.80;76.10;;;;;;5025500;28;20478;-56
2023/07/16 12:37:58;;;;;;;52.72;8.05;;;24.90;76.10;;;;;;5020518;28;20093;-57